ADDS METAR Data INFO
IDs: Format: Raw Decoded Include TAF

Data at: 0223 UTC 14 Dec 2017

KJFZ 140215Z AUTO 23014G31KT 190V260 10SM OVC044 02/M14 A2963 RMK AO2 T00171145
KJFZ 140155Z AUTO 23010G22KT 190V260 10SM OVC048 02/M15 A2963 RMK AO2 T00151147
KJFZ 140135Z AUTO 24010G20KT 10SM SCT048 01/M15 A2964 RMK AO2 T00131150
KJFZ 140115Z AUTO 23009G20KT 200V260 10SM CLR 02/M15 A2962 RMK AO2 T00151151
KJFZ 140055Z AUTO 22012G19KT 200V260 10SM CLR 02/M15 A2963 RMK AO2 T00181151
KJFZ 140035Z AUTO 24016G23KT 10SM CLR 02/M13 A2962 RMK AO2 T00201127
KJFZ 140015Z AUTO 26014G19KT 10SM CLR 02/M12 A2960 RMK AO2 T00161125
KJFZ 132355Z AUTO 24010G17KT 10SM CLR 03/M13 A2958 RMK AO2 T00251133 10032 21013
KJFZ 132335Z AUTO 24010G17KT 10SM SCT090 SCT120 03/M13 A2957 RMK AO2 T00271133
KJFZ 132315Z AUTO 22010G17KT 190V250 10SM BKN090 BKN110 03/M13 A2958 RMK AO2 T00301129
KJFZ 132255Z AUTO 22014G22KT 10SM OVC080 03/M13 A2958 RMK AO2 T00321132
KJFZ 132235Z AUTO 22016G25KT 10SM BKN070 OVC090 03/M12 A2959 RMK AO2 T00251118
KJFZ 132215Z AUTO 19011G16KT 160V220 10SM BKN060 OVC070 02/M11 A2960 RMK AO2 T00171113
KJFZ 132155Z AUTO 20008G16KT 170V230 10SM OVC050 02/M12 A2963 RMK AO2 T00151119
KJFZ 132135Z AUTO 20010G16KT 10SM OVC050 01/M12 A2964 RMK AO2 T00121122
KJFZ 132115Z AUTO 22014G18KT 10SM OVC050 01/M12 A2965 RMK AO2 T00111125
KJFZ 132055Z AUTO 21006KT 10SM OVC050 01/M11 A2966 RMK AO2 T00111115
KJFZ 132035Z AUTO 20010G14KT 150V230 10SM OVC050 01/M12 A2966 RMK AO2 T00051118
KJFZ 132015Z AUTO 23005KT 10SM OVC050 00/M12 A2968 RMK AO2 T00031117
KJFZ 131955Z AUTO 18004KT 10SM BKN060 00/M12 A2968 RMK AO2 T00021117
KJFZ 131935Z AUTO 21008G16KT 160V240 10SM SCT060 00/M12 A2970 RMK AO2 T00011122
KJFZ 131915Z AUTO 21006KT 10SM CLR 00/M12 A2972 RMK AO2 T00001123
KJFZ 131855Z AUTO 21005G14KT 10SM CLR 00/M13 A2973 RMK AO2 T10051127
KJFZ 131835Z AUTO 24011G15KT 10SM CLR 00/M13 A2975 RMK AO2 T10041128
KJFZ 131815Z AUTO 19004KT 10SM CLR M01/M14 A2976 RMK AO2 T10101140
KJFZ 131755Z AUTO 21004KT 10SM CLR M01/M14 A2977 RMK AO2 T10141143 11013 21098
KJFZ 131735Z AUTO 24009KT 10SM CLR M02/M15 A2979 RMK AO2 T10211150
KJFZ 131715Z AUTO 20008KT 10SM CLR M02/M15 A2980 RMK AO2 T10251149
KJFZ 131655Z AUTO 20006KT 10SM CLR M03/M15 A2981 RMK AO2 T10311154
KJFZ 131635Z AUTO 26004KT 10SM CLR M04/M15 A2983 RMK AO2 T10361153
KJFZ 131615Z AUTO 27008KT 210V300 10SM CLR M04/M16 A2984 RMK AO2 T10411163
KJFZ 131555Z AUTO 25003KT 10SM CLR M05/M16 A2986 RMK AO2 T10511160
KJFZ 131535Z AUTO 25009KT 10SM CLR M06/M17 A2987 RMK AO2 T10561167
KJFZ 131515Z AUTO 27009G15KT 10SM CLR M06/M17 A2988 RMK AO2 T10641168
KJFZ 131500Z AUTO 25010KT 10SM CLR M07/M16 A2988 RMK AO2 T10661162
KJFZ 131435Z AUTO 25006KT 10SM SCT027 M07/M15 A2988 RMK AO2 T10721155
KJFZ 131415Z AUTO 26008KT 10SM CLR M07/M16 A2988 RMK AO2 T10741163
KJFZ 131355Z AUTO 25007KT 10SM CLR M08/M16 A2988 RMK AO2 T10811162
KJFZ 131335Z AUTO 25008KT 10SM CLR M09/M16 A2989 RMK AO2 T10861163
KJFZ 131315Z AUTO 25008KT 10SM CLR M09/M16 A2989 RMK AO2 T10911159
KJFZ 131255Z AUTO 25007KT 10SM CLR M09/M16 A2989 RMK AO2 T10951160
KJFZ 131235Z AUTO 25005KT 10SM CLR M10/M16 A2989 RMK AO2 T10971158
KJFZ 131215Z AUTO 26006KT 10SM CLR M10/M16 A2989 RMK AO2 T10961157
KJFZ 131155Z AUTO 26007KT 10SM CLR M10/M16 A2989 RMK AO2 T10971156 11078 21098
KJFZ 131135Z AUTO 27007KT 10SM CLR M10/M16 A2989 RMK AO2 T10971157
KJFZ 131115Z AUTO 28007KT 10SM CLR M09/M16 A2988 RMK AO2 T10951158
KJFZ 131055Z AUTO 28007G14KT 10SM CLR M09/M16 A2987 RMK AO2 T10951158
KJFZ 131035Z AUTO 28010G16KT 10SM CLR M09/M16 A2986 RMK AO2 T10951160
KJFZ 131015Z AUTO 29007KT 10SM CLR M09/M16 A2986 RMK AO2 T10951160
KJFZ 130955Z AUTO 28007G14KT 10SM CLR M09/M16 A2986 RMK AO2 T10951161
KJFZ 130935Z AUTO 28012KT 10SM CLR M09/M16 A2985 RMK AO2 T10951161
KJFZ 130915Z AUTO 29009G14KT 10SM CLR M09/M16 A2985 RMK AO2 T10941160
KJFZ 130855Z AUTO 28006KT 10SM CLR M09/M16 A2986 RMK AO2 T10931158
KJFZ 130835Z AUTO 29006G16KT 10SM CLR M09/M16 A2986 RMK AO2 T10921157
KJFZ 130815Z AUTO 28008G17KT 10SM CLR M09/M16 A2985 RMK AO2 T10901156
KJFZ 130755Z AUTO 29006KT 260V320 10SM CLR M09/M15 A2986 RMK AO2 T10901155
KJFZ 130735Z AUTO 29008G19KT 260V320 10SM CLR M09/M15 A2985 RMK AO2 T10881155
KJFZ 130715Z AUTO 29009G19KT 260V320 10SM SCT031 M09/M15 A2984 RMK AO2 T10861152
KJFZ 130655Z AUTO 30009G16KT 10SM BKN031 M08/M15 A2983 RMK AO2 T10851148
KJFZ 130635Z AUTO 29006G17KT 10SM BKN031 M08/M15 A2983 RMK AO2 T10831149
KJFZ 130615Z AUTO 29010G16KT 10SM BKN035 M08/M15 A2983 RMK AO2 T10801150
KJFZ 130555Z AUTO 30008G16KT 260V320 10SM BKN035 BKN041 M08/M15 A2983 RMK AO2 T10781150 11054 21078 400631078
KJFZ 130535Z AUTO 31011G22KT 260V340 10SM BKN037 M08/M15 A2984 RMK AO2 T10761153
KJFZ 130515Z AUTO 29012G15KT 250V320 10SM OVC035 M07/M15 A2983 RMK AO2 T10731149
KJFZ 130455Z AUTO 30009G15KT 260V330 10SM OVC035 M07/M14 A2983 RMK AO2 T10721139
KJFZ 130435Z AUTO 31010G18KT 270V330 10SM BKN036 OVC045 M07/M14 A2984 RMK AO2 T10711137
KJFZ 130415Z AUTO 31010G20KT 270V340 10SM BKN032 BKN038 OVC045 M07/M14 A2984 RMK AO2 T10701139
KJFZ 130355Z AUTO 31011G20KT 10SM BKN034 OVC042 M07/M13 A2984 RMK AO2 T10701135
KJFZ 130335Z AUTO 31012G19KT 10SM SCT032 BKN040 OVC046 M07/M14 A2983 RMK AO2 T10671140
KJFZ 130315Z AUTO 31008G19KT 270V340 10SM BKN039 OVC048 M06/M14 A2983 RMK AO2 T10651143
KJFZ 130255Z AUTO 31008G22KT 260V330 10SM SCT041 OVC050 M06/M14 A2983 RMK AO2 T10651145
KJFZ 130235Z AUTO 31011G23KT 270V330 10SM SCT043 OVC050 M06/M15 A2982 RMK AO2 T10621148
KJFZ 130215Z AUTO 32010G17KT 290V350 10SM BKN044 OVC050 M06/M14 A2982 RMK AO2 T10601144
KJFZ 130155Z AUTO 30013G24KT 270V330 10SM BKN044 OVC050 M06/M14 A2982 RMK AO2 T10601145
KJFZ 130135Z AUTO 31012G20KT 10SM BKN048 OVC055 M06/M15 A2982 RMK AO2 T10581146
KJFZ 130055Z AUTO 31016G25KT 290V350 10SM OVC055 M06/M14 A2981 RMK AO2 T10561140
KJFZ 130035Z AUTO 31010G22KT 10SM SCT047 BKN055 M06/M13 A2980 RMK AO2 T10561135
KJFZ 130015Z AUTO 31015G22KT 10SM SCT009 SCT018 BKN055 M05/M12 A2980 RMK AO2 T10551125
KJFZ 122355Z AUTO 31011G21KT 270V340 10SM SCT031 BKN050 OVC055 M05/M11 A2980 RMK AO2 T10551112 11008 21060
KJFZ 122335Z AUTO 31010G22KT 10SM SCT028 SCT038 OVC055 M06/M09 A2979 RMK AO2 T10561095
KJFZ 122315Z AUTO 31010G17KT 10SM SCT009 BKN026 OVC055 M06/M08 A2979 RMK AO2 T10581078
KJFZ 122255Z AUTO 30010G19KT 3/4SM SN BKN009 OVC016 M06/M07 A2978 RMK AO2 T10561071
KJFZ 122235Z AUTO 30013G21KT 10SM BKN019 BKN030 BKN043 M05/M09 A2976 RMK AO2 T10481086
KJFZ 122215Z AUTO 29012G28KT 5SM -SN SCT021 BKN028 OVC065 M05/M09 A2975 RMK AO2 T10461086
KJFZ 122155Z AUTO 31011G19KT 5SM HZ SCT015 BKN026 OVC060 M04/M08 A2974 RMK AO2 T10441083
KJFZ 122135Z AUTO 29018G31KT 10SM SCT017 BKN038 OVC060 M04/M08 A2974 RMK AO2 T10401083
KJFZ 122115Z AUTO 31011G24KT 280V340 10SM SCT030 SCT038 BKN060 M04/M08 A2974 RMK AO2 T10361081
KJFZ 122055Z AUTO 30013G23KT 260V320 10SM BKN033 BKN039 OVC045 M03/M09 A2973 RMK AO2 T10271093
KJFZ 122035Z AUTO 29009G16KT 270V330 10SM BKN033 OVC040 M02/M09 A2972 RMK AO2 T10211089
KJFZ 122015Z AUTO 29008G25KT 10SM SCT013 BKN026 OVC034 M02/M08 A2972 RMK AO2 T10211085
KJFZ 121955Z AUTO 28010G24KT 7SM -SN BKN011 BKN017 OVC024 M03/M06 A2972 RMK AO2 T10291060
KJFZ 121935Z AUTO 31010G22KT 7SM -SN OVC011 M03/M05 A2971 RMK AO2 T10281050
KJFZ 121915Z AUTO 31014G22KT 10SM -SN OVC011 M02/M05 A2970 RMK AO2 T10241047
KJFZ 121855Z AUTO 32010G26KT 280V360 10SM -SN OVC009 M02/M04 A2970 RMK AO2 T10221044
KJFZ 121835Z AUTO 31014G23KT 290V350 7SM -SN OVC009 M02/M04 A2970 RMK AO2 T10201039
KJFZ 121815Z AUTO 31010G19KT 7SM -SN OVC009 M01/M03 A2970 RMK AO2 T10131035
KJFZ 121755Z AUTO 31010G18KT 1 1/2SM -SN BKN009 OVC013 M01/M02 A2970 RMK AO2 T10071022 10034 21007
KJFZ 121735Z AUTO 28010G16KT 260V340 3SM -SN BKN015 OVC027 00/M02 A2970 RMK AO2 T00001022
KJFZ 121715Z AUTO 28011G20KT 250V320 10SM -SN SCT008 BKN014 OVC026 00/M02 A2971 RMK AO2 T00031020
KJFZ 121655Z AUTO 31010G15KT 4SM -SN BKN010 OVC019 01/M01 A2972 RMK AO2 T00051015
KJFZ 121635Z AUTO 28013G17KT 5SM -SN BKN012 OVC020 01/M01 A2973 RMK AO2 T00061011
KJFZ 121615Z AUTO 28008G15KT 7SM -SN BKN014 OVC020 01/M01 A2973 RMK AO2 T00091012
KJFZ 121555Z AUTO 29012G20KT 10SM -SN SCT008 BKN018 OVC024 01/M01 A2973 RMK AO2 T00111010
KJFZ 121535Z AUTO 29007KT 10SM BKN010 OVC013 01/M01 A2974 RMK AO2 T00071006
KJFZ 121515Z AUTO 28008G14KT 4SM RA OVC012 01/00 A2974 RMK AO2 T00071005
KJFZ 121455Z AUTO 28006G21KT 5SM -DZ OVC015 01/M01 A2974 RMK AO2 T00101010
KJFZ 121435Z AUTO 29008KT 10SM BKN019 OVC026 02/M02 A2973 RMK AO2 T00161017